Time;durP1;ratioP1;P1;durP2;ratioP2;P2;SDS_P1;SDS_P2;PMS_P1;PMS_P2;Temp;Humidity;BMP_temperature;BMP_pressure;BME280_temperature;BME280_humidity;BME280_pressure;Samples;Min_cycle;Max_cycle;Signal;HPM_P1;HPM_P2
2024/02/09 00:00:29;;;;;;;15.82;4.28;;;;;;;12.81;63.73;97718.84;4146085;28;20014;-68
2024/02/09 00:02:31;;;;;;;9.00;3.08;;;;;;;12.77;63.57;97713.09;4146150;28;20042;-65
2024/02/09 00:04:31;;;;;;;9.65;3.38;;;;;;;12.77;63.73;97706.91;4147517;28;20042;-66
2024/02/09 00:06:31;;;;;;;13.07;3.45;;;;;;;12.74;64.08;97696.63;4146161;28;20022;-65
2024/02/09 00:08:32;;;;;;;11.32;3.65;;;;;;;12.69;63.99;97691.09;4139803;28;20041;-66
2024/02/09 00:10:36;;;;;;;9.77;3.42;;;;;;;12.77;63.93;97675.56;4130308;28;20493;-66
2024/02/09 00:12:36;;;;;;;13.35;3.95;;;;;;;12.73;63.93;97689.63;4134838;28;20030;-66
2024/02/09 00:14:42;;;;;;;10.10;2.95;;;;;;;12.70;64.22;97684.69;4134253;28;20056;-68
2024/02/09 00:16:43;;;;;;;11.05;3.08;;;;;;;12.72;64.20;97683.44;4134174;28;20049;-65
2024/02/09 00:18:44;;;;;;;13.50;3.90;;;;;;;12.72;64.43;97687.97;4132335;28;20026;-65
2024/02/09 00:20:47;;;;;;;11.23;4.28;;;;;;;12.67;64.47;97701.19;4146976;28;20470;-65
2024/02/09 00:22:49;;;;;;;12.13;3.80;;;;;;;12.67;64.75;97702.03;4131346;28;20169;-66
2024/02/09 00:24:49;;;;;;;11.82;3.85;;;;;;;12.61;64.69;97695.66;4130667;28;20534;-64
2024/02/09 00:26:49;;;;;;;11.85;4.22;;;;;;;12.57;65.19;97697.13;4131149;28;20026;-66
2024/02/09 00:28:50;;;;;;;13.65;3.55;;;;;;;12.51;65.49;97694.50;4130582;28;20118;-65
2024/02/09 00:30:51;;;;;;;13.98;3.75;;;;;;;12.55;65.47;97688.50;4132327;28;20478;-66
2024/02/09 00:32:51;;;;;;;9.82;3.33;;;;;;;12.54;65.63;97683.34;4131282;28;20425;-66
2024/02/09 00:34:54;;;;;;;17.02;3.75;;;;;;;12.54;65.66;97678.81;4131789;28;20031;-65
2024/02/09 00:36:55;;;;;;;11.52;3.20;;;;;;;12.52;65.94;97677.38;4147196;28;20092;-67
2024/02/09 00:38:56;;;;;;;18.15;3.83;;;;;;;12.51;65.89;97676.56;4133583;28;20026;-66
2024/02/09 00:40:57;;;;;;;13.27;3.35;;;;;;;12.49;65.95;97673.25;4135297;28;20110;-67
2024/02/09 00:43:01;;;;;;;11.13;2.80;;;;;;;12.45;66.49;97688.16;4135001;28;20022;-65
2024/02/09 00:45:02;;;;;;;11.48;3.70;;;;;;;12.39;66.60;97683.63;4133829;28;20030;-65
2024/02/09 00:47:02;;;;;;;15.45;4.07;;;;;;;12.26;67.47;97685.34;4135308;28;20038;-67
2024/02/09 00:49:04;;;;;;;15.90;3.92;;;;;;;12.14;68.15;97690.53;4133658;28;20042;-66
2024/02/09 00:51:06;;;;;;;14.00;2.97;;;;;;;12.21;68.12;97693.19;4133972;28;20521;-64
2024/02/09 00:53:10;;;;;;;11.10;3.63;;;;;;;12.22;68.40;97691.34;4133972;28;20026;-66
2024/02/09 00:55:11;;;;;;;11.45;3.22;;;;;;;12.19;68.50;97694.44;4137713;28;20038;-67
2024/02/09 00:57:12;;;;;;;11.20;3.22;;;;;;;12.16;68.86;97698.38;4139019;28;20030;-67
2024/02/09 00:59:13;;;;;;;14.25;3.70;;;;;;;11.95;70.08;97707.50;4135307;28;20050;-67
2024/02/09 01:01:13;;;;;;;14.65;4.57;;;;;;;11.83;70.80;97720.69;4136863;28;20042;-65
2024/02/09 01:03:15;;;;;;;12.50;4.00;;;;;;;11.88;70.97;97723.56;4135790;28;20042;-67
2024/02/09 01:05:18;;;;;;;14.38;3.88;;;;;;;11.80;71.76;97711.22;4135509;28;20034;-65
2024/02/09 01:07:18;;;;;;;10.07;3.17;;;;;;;11.69;72.43;97718.06;4135371;28;20034;-64
2024/02/09 01:09:19;;;;;;;13.00;3.90;;;;;;;11.66;72.83;97721.13;4133399;28;20026;-65
2024/02/09 01:11:20;;;;;;;11.50;3.10;;;;;;;11.58;73.40;97737.41;4133763;28;20034;-66
2024/02/09 02:46:13;;;;;;;7.60;2.65;;;;;;;11.90;76.01;97622.47;4135546;28;20622;-66
2024/02/09 03:04:32;;;;;;;6.25;2.60;;;;;;;11.98;76.26;97592.78;4138910;28;20073;-67
2024/02/09 03:06:33;;;;;;;8.43;3.05;;;;;;;12.00;76.29;97582.66;4140979;28;20030;-66
2024/02/09 03:08:34;;;;;;;9.05;2.83;;;;;;;11.89;76.76;97572.63;4142196;28;20031;-67
2024/02/09 03:10:37;;;;;;;7.93;3.17;;;;;;;11.93;76.80;97573.81;4140610;28;20060;-65
2024/02/09 03:12:38;;;;;;;9.60;2.47;;;;;;;11.91;76.83;97567.03;4141968;28;20506;-67
2024/02/09 03:14:39;;;;;;;12.07;4.45;;;;;;;11.95;76.94;97568.28;4142598;28;20018;-66
2024/02/09 03:16:40;;;;;;;7.85;2.45;;;;;;;12.00;76.53;97573.81;4140709;28;20050;-65
2024/02/09 03:18:41;;;;;;;11.75;2.78;;;;;;;11.96;76.80;97567.22;4134740;28;20037;-65
2024/02/09 03:20:41;;;;;;;8.57;2.63;;;;;;;11.98;76.65;97571.38;4133324;28;20053;-67
2024/02/09 03:22:42;;;;;;;7.05;2.05;;;;;;;12.01;76.73;97565.56;4133285;28;20030;-68
2024/02/09 03:24:43;;;;;;;8.18;2.28;;;;;;;11.95;76.92;97574.44;4132372;28;20088;-66
2024/02/09 03:26:43;;;;;;;8.73;3.58;;;;;;;11.86;77.30;97573.84;4132720;28;20031;-67
2024/02/09 03:28:44;;;;;;;9.43;2.85;;;;;;;11.85;77.08;97571.41;4135038;28;20303;-67
2024/02/09 03:30:45;;;;;;;9.98;3.25;;;;;;;11.77;77.53;97579.66;4133084;28;20018;-67
2024/02/09 03:32:45;;;;;;;10.50;2.78;;;;;;;11.71;77.82;97576.00;4132071;28;20030;-64
2024/02/09 03:34:47;;;;;;;7.35;2.45;;;;;;;11.77;77.34;97571.66;4131516;28;20026;-65
2024/02/09 03:36:47;;;;;;;9.00;3.30;;;;;;;11.78;77.36;97562.59;4129885;28;20092;-66
2024/02/09 03:38:49;;;;;;;9.38;2.65;;;;;;;11.86;76.91;97562.34;4130341;28;20026;-67
2024/02/09 03:40:51;;;;;;;9.02;2.78;;;;;;;11.84;77.12;97553.69;4130839;28;20026;-66
2024/02/09 03:42:51;;;;;;;7.18;2.50;;;;;;;11.87;76.92;97542.56;4130991;28;20093;-68
2024/02/09 03:44:55;;;;;;;8.02;2.88;;;;;;;11.88;76.69;97549.56;4130575;28;20109;-67
2024/02/09 03:46:58;;;;;;;7.72;2.50;;;;;;;11.82;76.83;97551.22;4130733;28;20501;-67
2024/02/09 03:48:59;;;;;;;9.70;2.65;;;;;;;11.68;77.28;97547.81;4130537;28;20026;-67
2024/02/09 03:51:01;;;;;;;10.30;2.67;;;;;;;11.66;77.47;97541.84;4131129;28;20177;-66
2024/02/09 03:53:02;;;;;;;8.73;3.15;;;;;;;11.84;76.54;97540.31;4129430;28;20038;-65
2024/02/09 03:55:03;;;;;;;10.73;2.88;;;;;;;11.89;76.30;97545.00;4130891;28;20030;-66
2024/02/09 03:57:04;;;;;;;8.00;2.90;;;;;;;11.94;76.22;97540.66;4131259;28;20050;-66
2024/02/09 03:59:06;;;;;;;10.25;2.90;;;;;;;11.91;76.37;97542.94;4130912;28;20022;-68
2024/02/09 04:01:10;;;;;;;9.40;2.53;;;;;;;11.97;75.75;97548.31;4131540;28;20058;-65
2024/02/09 04:03:10;;;;;;;8.88;2.65;;;;;;;11.98;75.77;97549.13;4131570;28;20148;-67
2024/02/09 04:05:12;;;;;;;7.38;2.42;;;;;;;11.94;75.90;97540.66;4130740;28;20113;-67
2024/02/09 04:07:12;;;;;;;;;;;;;;;11.85;76.10;97539.28;4129658;28;20065;-66
2024/02/09 04:09:12;;;;;;;10.43;3.10;;;;;;;11.94;75.66;97526.47;4130490;28;20501;-65
2024/02/09 04:11:21;;;;;;;8.35;2.63;;;;;;;11.95;75.34;97520.88;4131113;28;20553;-66
2024/02/09 04:13:21;;;;;;;8.68;2.42;;;;;;;11.89;76.00;97524.44;4132268;28;20045;-68
2024/02/09 04:15:22;;;;;;;7.45;2.92;;;;;;;11.86;75.94;97527.53;4134365;28;20375;-65
2024/02/09 04:17:28;;;;;;;8.80;3.67;;;;;;;11.71;76.60;97519.78;4134303;28;20079;-66
2024/02/09 04:19:29;;;;;;;11.50;3.25;;;;;;;11.71;76.52;97523.28;4134632;28;20495;-65
2024/02/09 04:21:30;;;;;;;10.63;3.47;;;;;;;11.65;76.77;97518.78;4135973;28;20053;-65
2024/02/09 04:23:31;;;;;;;16.08;3.58;;;;;;;11.62;76.99;97521.06;4134075;28;20026;-67
2024/02/09 04:25:31;;;;;;;12.27;3.53;;;;;;;11.62;76.92;97519.19;4134176;28;20034;-65
2024/02/09 04:27:32;;;;;;;9.35;3.33;;;;;;;11.63;76.95;97520.03;4134079;28;20062;-65
2024/02/09 04:29:36;;;;;;;9.02;3.15;;;;;;;11.53;77.72;97523.16;4133209;28;20077;-66
2024/02/09 04:31:40;;;;;;;7.22;2.78;;;;;;;11.55;77.63;97521.94;4133821;28;20073;-65
2024/02/09 04:33:41;;;;;;;8.77;3.17;;;;;;;11.63;77.22;97520.84;4133921;28;20379;-66
2024/02/09 04:35:42;;;;;;;8.95;3.33;;;;;;;11.57;77.54;97524.38;4133731;28;20022;-66
2024/02/09 04:37:43;;;;;;;9.55;2.80;;;;;;;11.68;77.21;97521.03;4131625;28;20042;-67
2024/02/09 04:39:44;;;;;;;9.15;2.75;;;;;;;11.65;77.61;97516.09;4132122;28;20433;-66
2024/02/09 04:41:46;;;;;;;6.90;2.50;;;;;;;11.69;77.66;97517.34;4133906;28;20023;-65
2024/02/09 04:43:46;;;;;;;10.98;3.67;;;;;;;11.75;77.38;97522.84;4135459;28;20026;-64
2024/02/09 04:45:47;;;;;;;10.18;2.88;;;;;;;11.77;77.39;97510.09;4134020;28;20037;-66
2024/02/09 04:47:47;;;;;;;9.53;2.67;;;;;;;11.79;77.34;97513.38;4133963;28;20030;-65
2024/02/09 04:49:49;;;;;;;7.05;1.98;;;;;;;11.85;77.39;97507.16;4134371;28;20746;-69
2024/02/09 04:51:49;;;;;;;5.10;1.83;;;;;;;11.88;77.10;97506.72;4137538;28;20036;-67
2024/02/09 04:53:50;;;;;;;6.63;2.55;;;;;;;11.95;76.79;97512.06;4142976;28;20061;-66
2024/02/09 04:55:50;;;;;;;7.82;2.20;;;;;;;12.00;76.70;97506.88;4134136;28;20026;-68
2024/02/09 04:57:51;;;;;;;8.68;2.15;;;;;;;11.97;76.57;97505.47;4133211;28;20030;-67
2024/02/09 04:59:51;;;;;;;5.55;2.17;;;;;;;11.92;76.96;97507.91;4133383;28;20541;-68
2024/02/09 05:01:52;;;;;;;10.98;2.00;;;;;;;11.92;77.07;97512.47;4133264;28;20061;-64
2024/02/09 05:03:52;;;;;;;5.07;1.88;;;;;;;12.01;76.69;97498.63;4132597;28;20038;-65
2024/02/09 05:05:52;;;;;;;6.90;1.90;;;;;;;12.05;76.72;97499.00;4139800;28;20027;-65
2024/02/09 05:07:53;;;;;;;7.15;2.58;;;;;;;12.02;76.85;97510.97;4148104;28;20274;-66
2024/02/09 05:09:53;;;;;;;6.75;2.35;;;;;;;12.04;76.66;97501.91;4150572;28;20090;-67
2024/02/09 05:11:54;;;;;;;7.20;2.05;;;;;;;12.10;76.69;97493.00;4149326;28;20036;-68
2024/02/09 05:13:55;;;;;;;6.13;2.03;;;;;;;12.10;76.76;97487.66;4150319;28;20022;-68
2024/02/09 05:15:55;;;;;;;4.93;1.95;;;;;;;12.13;76.52;97487.22;4148153;28;20022;-65
2024/02/09 05:17:56;;;;;;;7.53;2.22;;;;;;;12.09;76.96;97481.50;4145179;28;20030;-66
2024/02/09 05:19:58;;;;;;;9.98;2.53;;;;;;;12.09;76.84;97486.03;4145428;28;20033;-67
2024/02/09 05:21:58;;;;;;;4.47;2.38;;;;;;;12.14;76.62;97483.50;4139561;28;20495;-66
2024/02/09 05:23:58;;;;;;;6.53;2.17;;;;;;;12.03;76.92;97479.69;4135342;28;20033;-65
2024/02/09 05:25:59;;;;;;;5.95;1.75;;;;;;;12.12;76.90;97480.22;4133705;28;20026;-66
2024/02/09 05:27:59;;;;;;;6.13;1.90;;;;;;;12.10;76.89;97482.28;4133015;28;20542;-67
2024/02/09 05:30:00;;;;;;;6.57;2.10;;;;;;;12.17;76.36;97483.91;4133573;28;20030;-67
2024/02/09 05:32:00;;;;;;;7.65;2.05;;;;;;;12.13;76.60;97476.50;4131879;28;20495;-66
2024/02/09 05:34:01;;;;;;;7.15;2.28;;;;;;;12.09;76.79;97478.00;4134025;28;20438;-65
2024/02/09 05:36:02;;;;;;;6.15;2.47;;;;;;;12.09;76.47;97481.50;4134765;28;20106;-68
2024/02/09 05:38:03;;;;;;;5.43;2.20;;;;;;;12.22;76.08;97477.88;4136934;28;20113;-66
2024/02/09 05:40:05;;;;;;;9.43;2.40;;;;;;;12.21;75.78;97478.91;4132984;28;20022;-67
2024/02/09 05:42:05;;;;;;;5.35;2.10;;;;;;;12.24;75.69;97478.50;4132793;28;20022;-68
2024/02/09 05:44:06;;;;;;;8.48;2.05;;;;;;;12.26;75.43;97481.78;4132307;28;20065;-67
2024/02/09 05:46:07;;;;;;;6.80;2.08;;;;;;;12.21;75.27;97484.28;4132833;28;20030;-67
2024/02/09 05:48:09;;;;;;;7.65;2.28;;;;;;;12.18;75.11;97484.72;4132538;28;20035;-66
2024/02/09 05:50:09;;;;;;;9.48;2.20;;;;;;;12.15;75.09;97471.75;4131615;28;20026;-68
2024/02/09 05:52:11;;;;;;;6.35;1.98;;;;;;;12.24;74.60;97481.16;4133142;28;20360;-67
2024/02/09 05:54:11;;;;;;;8.82;2.30;;;;;;;12.29;74.53;97470.59;4132542;28;20030;-67
2024/02/09 05:56:21;;;;;;;5.13;1.92;;;;;;;12.25;74.41;97480.13;4132503;28;20097;-67
2024/02/09 05:58:23;;;;;;;5.30;1.63;;;;;;;12.30;73.94;97474.94;4132209;28;20092;-66
2024/02/09 06:00:24;;;;;;;4.60;1.92;;;;;;;12.16;74.77;97478.75;4132780;28;20379;-66
2024/02/09 06:02:25;;;;;;;;;;;;;;;12.25;74.11;97474.78;4133106;28;20088;-66
2024/02/09 06:04:26;;;;;;;7.27;1.93;;;;;;;12.18;74.35;97479.38;4132266;28;19917;-68
2024/02/09 06:06:26;;;;;;;7.05;2.08;;;;;;;12.18;74.35;97468.66;4132236;28;20021;-66
2024/02/09 06:08:27;;;;;;;5.10;2.08;;;;;;;12.28;74.07;97478.88;4131941;28;20405;-67
2024/02/09 06:10:28;;;;;;;7.65;2.22;;;;;;;12.32;73.59;97470.19;4130909;28;20038;-65
2024/02/09 06:12:28;;;;;;;7.13;1.73;;;;;;;12.38;73.40;97478.38;4131736;28;20033;-66
2024/02/09 06:14:28;;;;;;;6.20;2.07;;;;;;;12.38;73.42;97483.72;4132227;28;20097;-65
2024/02/09 06:16:29;;;;;;;6.50;2.05;;;;;;;12.39;73.45;97480.00;4132232;28;20261;-67
2024/02/09 06:18:30;;;;;;;5.43;2.40;;;;;;;12.42;73.27;97474.22;4131729;28;20026;-66
2024/02/09 06:20:30;;;;;;;6.90;2.10;;;;;;;12.43;73.14;97475.88;4131737;28;20095;-68
2024/02/09 06:22:31;;;;;;;5.82;1.58;;;;;;;12.35;73.11;97484.19;4132100;28;20161;-66
2024/02/09 06:24:31;;;;;;;4.53;1.75;;;;;;;12.39;72.93;97482.69;4132062;28;20068;-66
2024/02/09 06:26:32;;;;;;;5.07;1.95;;;;;;;12.29;73.02;97486.69;4131037;28;20026;-67
2024/02/09 06:28:33;;;;;;;5.03;2.05;;;;;;;12.46;72.64;97486.97;4131500;28;20023;-64
2024/02/09 06:30:33;;;;;;;6.20;2.45;;;;;;;12.42;72.88;97484.94;4132216;28;20089;-65
2024/02/09 06:32:34;;;;;;;7.13;1.98;;;;;;;12.36;72.61;97491.19;4131950;28;20471;-66
2024/02/09 06:34:34;;;;;;;6.55;1.95;;;;;;;12.51;72.17;97494.34;4131640;28;20026;-66
2024/02/09 06:36:34;;;;;;;8.45;2.50;;;;;;;12.38;72.37;97489.09;4131148;28;20130;-67
2024/02/09 06:38:36;;;;;;;5.72;1.77;;;;;;;12.45;72.26;97490.69;4131693;28;20022;-65
2024/02/09 06:40:38;;;;;;;5.90;1.73;;;;;;;12.48;71.99;97492.09;4132486;28;20061;-66
2024/02/09 06:42:39;;;;;;;7.85;3.50;;;;;;;12.53;71.92;97491.44;4131791;28;20471;-67
2024/02/09 06:44:42;;;;;;;5.57;2.05;;;;;;;12.62;71.38;97485.59;4131957;28;20026;-67
2024/02/09 06:46:43;;;;;;;5.53;2.03;;;;;;;12.57;71.75;97504.16;4131714;28;20033;-67
2024/02/09 06:48:46;;;;;;;8.05;2.17;;;;;;;12.58;71.41;97500.44;4130105;28;20034;-66
2024/02/09 06:50:48;;;;;;;6.32;1.88;;;;;;;12.55;71.67;97495.56;4132265;28;20030;-66
2024/02/09 06:52:48;;;;;;;5.68;2.03;;;;;;;12.53;71.74;97507.50;4131995;28;20348;-67
2024/02/09 06:54:48;;;;;;;5.85;2.10;;;;;;;12.64;71.40;97514.84;4131595;28;20126;-65
2024/02/09 06:56:53;;;;;;;5.18;2.00;;;;;;;12.55;71.44;97505.44;4131715;28;20057;-67
2024/02/09 06:58:54;;;;;;;5.47;1.80;;;;;;;12.47;71.62;97509.19;4132528;28;20085;-65
2024/02/09 07:00:54;;;;;;;;;;;;;;;12.58;70.74;97507.69;4132596;28;20446;-67
2024/02/09 07:02:55;;;;;;;7.40;2.77;;;;;;;12.50;71.53;97502.59;4131622;28;19914;-66
2024/02/09 07:05:00;;;;;;;6.20;1.80;;;;;;;12.60;71.13;97509.09;4132171;28;20029;-64
2024/02/09 07:07:05;;;;;;;5.15;1.88;;;;;;;12.58;71.34;97511.16;4130331;28;20041;-66
2024/02/09 07:09:07;;;;;;;5.05;1.83;;;;;;;12.60;71.18;97514.47;4142683;28;20506;-67
2024/02/09 07:11:11;;;;;;;6.13;2.10;;;;;;;12.66;70.95;97520.00;4145728;28;20025;-69
2024/02/09 07:13:12;;;;;;;7.28;1.85;;;;;;;12.59;70.98;97518.19;4146182;28;20577;-66
2024/02/09 07:15:14;;;;;;;4.82;1.80;;;;;;;12.64;70.62;97525.56;4145951;28;20034;-69
2024/02/09 07:17:14;;;;;;;5.70;1.63;;;;;;;12.59;70.99;97526.22;4146273;28;20026;-66
2024/02/09 07:19:15;;;;;;;6.22;1.88;;;;;;;12.64;70.84;97526.41;4144571;28;20118;-67
2024/02/09 07:21:16;;;;;;;6.22;1.98;;;;;;;12.63;70.59;97522.06;4133069;28;20026;-66
2024/02/09 07:23:17;;;;;;;8.15;2.80;;;;;;;12.70;70.48;97518.50;4132234;28;20022;-66
2024/02/09 07:25:18;;;;;;;4.82;1.38;;;;;;;12.73;70.32;97526.91;4129631;28;20026;-65
2024/02/09 07:27:18;;;;;;;7.97;2.10;;;;;;;12.68;70.58;97517.91;4130967;28;20022;-65
2024/02/09 07:29:22;;;;;;;8.55;2.28;;;;;;;12.60;70.81;97524.38;4129359;28;20121;-66
2024/02/09 07:31:22;;;;;;;5.20;2.20;;;;;;;12.63;70.79;97519.41;4131072;28;20030;-67
2024/02/09 07:33:23;;;;;;;4.82;1.55;;;;;;;12.68;70.26;97520.56;4130983;28;20502;-66
2024/02/09 07:35:25;;;;;;;6.45;1.70;;;;;;;12.73;69.84;97521.56;4129890;28;20387;-66
2024/02/09 07:37:25;;;;;;;4.10;1.60;;;;;;;12.70;69.96;97519.34;4130688;28;20018;-65
2024/02/09 07:39:25;;;;;;;6.00;1.73;;;;;;;12.72;70.08;97516.44;4129861;28;20033;-66
2024/02/09 07:41:27;;;;;;;6.38;2.17;;;;;;;12.75;69.82;97510.63;4130659;28;20093;-67
2024/02/09 07:43:28;;;;;;;6.90;1.80;;;;;;;12.72;69.67;97511.06;4130289;28;20026;-66
2024/02/09 07:45:28;;;;;;;4.80;1.60;;;;;;;12.75;69.73;97510.63;4130547;28;20471;-67
2024/02/09 07:47:29;;;;;;;6.25;1.67;;;;;;;12.76;69.36;97509.56;4130468;28;20030;-67
2024/02/09 07:49:31;;;;;;;3.90;1.48;;;;;;;12.83;69.06;97504.16;4129927;28;20113;-67
2024/02/09 07:51:31;;;;;;;9.57;2.40;;;;;;;12.74;69.38;97504.44;4130820;28;20610;-67
2024/02/09 07:53:32;;;;;;;4.63;1.60;;;;;;;12.87;68.74;97495.44;4130404;28;20026;-66
2024/02/09 07:55:32;;;;;;;5.53;2.30;;;;;;;12.85;68.77;97492.16;4130428;28;20353;-66
2024/02/09 07:57:35;;;;;;;5.38;1.88;;;;;;;12.88;68.52;97488.22;4130854;28;20029;-66
2024/02/09 07:59:36;;;;;;;5.22;1.77;;;;;;;12.94;68.24;97493.50;4130666;28;20061;-67
2024/02/09 08:01:36;;;;;;;3.92;1.48;;;;;;;12.98;67.95;97482.34;4130500;28;20081;-66
2024/02/09 08:03:38;;;;;;;4.40;1.77;;;;;;;12.94;67.96;97498.06;4130593;28;20122;-65
2024/02/09 08:05:38;;;;;;;7.57;1.90;;;;;;;12.97;68.06;97486.06;4130442;28;20101;-67
2024/02/09 08:07:41;;;;;;;8.00;1.70;;;;;;;13.04;67.58;97490.31;4128968;28;20482;-66
2024/02/09 08:09:41;;;;;;;4.25;1.48;;;;;;;13.13;67.22;97484.66;4131418;28;20109;-67
2024/02/09 08:11:44;;;;;;;6.43;1.83;;;;;;;13.19;66.98;97483.75;4131620;28;20022;-68
2024/02/09 08:13:44;;;;;;;5.20;1.83;;;;;;;13.19;67.00;97492.63;4130647;28;20030;-66
2024/02/09 08:15:45;;;;;;;5.55;1.63;;;;;;;13.17;66.87;97485.84;4130907;28;20033;-68
2024/02/09 08:17:48;;;;;;;4.57;1.90;;;;;;;13.30;66.45;97484.88;4131030;28;20056;-67
2024/02/09 08:19:50;;;;;;;5.97;1.92;;;;;;;13.37;66.35;97488.28;4130809;28;20510;-67
2024/02/09 08:21:50;;;;;;;8.80;1.75;;;;;;;13.23;66.51;97485.75;4130647;28;20026;-66
2024/02/09 08:23:51;;;;;;;6.50;1.67;;;;;;;13.25;66.17;97489.03;4130612;28;20041;-66
2024/02/09 08:25:51;;;;;;;;;;;;;;;13.21;65.64;97479.81;4130703;28;20037;-67
2024/02/09 08:27:51;;;;;;;5.03;1.47;;;;;;;13.34;65.69;97486.06;4130257;28;19926;-66
2024/02/09 08:29:56;;;;;;;7.32;2.20;;;;;;;13.17;66.15;97481.31;4130730;28;20113;-66
2024/02/09 08:31:56;;;;;;;6.00;1.67;;;;;;;13.32;65.75;97472.88;4130386;28;20041;-65
2024/02/09 08:33:57;;;;;;;5.40;1.73;;;;;;;13.33;65.79;97471.00;4130921;28;20388;-66
2024/02/09 08:35:57;;;;;;;4.97;2.15;;;;;;;13.42;65.25;97472.34;4130140;28;20033;-66
2024/02/09 08:37:57;;;;;;;3.90;1.48;;;;;;;13.38;65.47;97471.16;4129830;28;20026;-66
2024/02/09 08:40:03;;;;;;;4.63;1.40;;;;;;;13.38;65.28;97468.47;4130172;28;20030;-67
2024/02/09 08:42:04;;;;;;;5.90;2.05;;;;;;;13.26;65.71;97473.78;4129215;28;20113;-67
2024/02/09 08:44:04;;;;;;;6.40;2.42;;;;;;;13.37;65.51;97477.56;4131257;28;20418;-67
2024/02/09 08:46:05;;;;;;;5.55;1.95;;;;;;;13.47;65.17;97469.00;4130338;28;20030;-65
2024/02/09 08:48:06;;;;;;;8.15;1.98;;;;;;;13.46;65.23;97472.75;4130493;28;20084;-67
2024/02/09 08:50:06;;;;;;;4.68;1.95;;;;;;;13.34;65.33;97470.78;4130746;28;20035;-67
2024/02/09 08:52:06;;;;;;;;;;;;;;;13.27;64.95;97476.22;4131004;28;20038;-67
2024/02/09 08:54:07;;;;;;;4.07;1.65;;;;;;;13.50;64.99;97473.91;4130584;28;20371;-68
2024/02/09 08:56:09;;;;;;;5.22;1.85;;;;;;;13.40;65.19;97472.59;4130426;28;20475;-67
2024/02/09 08:58:10;;;;;;;6.57;1.60;;;;;;;13.37;65.16;97470.31;4129026;28;20030;-67
2024/02/09 09:00:11;;;;;;;7.50;2.00;;;;;;;13.32;65.41;97472.06;4132186;28;20471;-65
2024/02/09 09:02:11;;;;;;;3.85;1.40;;;;;;;13.22;65.51;97467.22;4133585;28;20060;-68
2024/02/09 09:04:13;;;;;;;4.65;1.50;;;;;;;13.34;65.48;97465.41;4132895;28;20049;-76
2024/02/09 09:06:14;;;;;;;5.03;2.13;;;;;;;13.40;65.27;97463.72;4133352;28;20022;-76
2024/02/09 09:08:14;;;;;;;5.22;1.67;;;;;;;13.38;65.08;97458.53;4132789;28;20042;-76
2024/02/09 09:10:15;;;;;;;6.65;2.15;;;;;;;13.29;65.30;97456.41;4133806;28;20026;-77
2024/02/09 09:12:15;;;;;;;5.55;1.70;;;;;;;13.24;65.18;97457.88;4134356;28;20019;-75
2024/02/09 09:14:16;;;;;;;6.85;1.55;;;;;;;13.22;65.35;97465.38;4132005;28;20055;-75
2024/02/09 09:16:16;;;;;;;11.27;2.80;;;;;;;13.31;65.12;97463.19;4133406;28;20026;-76
2024/02/09 09:18:17;;;;;;;5.45;2.00;;;;;;;13.34;64.85;97469.94;4132578;28;20030;-76
2024/02/09 09:20:17;;;;;;;6.38;1.60;;;;;;;13.45;64.49;97458.50;4134754;28;20096;-76
2024/02/09 09:22:18;;;;;;;4.85;1.48;;;;;;;13.51;64.42;97452.22;4132915;28;20088;-76
2024/02/09 09:24:19;;;;;;;4.78;1.30;;;;;;;13.54;64.34;97454.44;4131357;28;20068;-76
2024/02/09 09:26:20;;;;;;;6.32;2.25;;;;;;;13.57;64.07;97454.00;4132712;28;20037;-75
2024/02/09 09:28:21;;;;;;;3.90;1.45;;;;;;;13.60;63.95;97454.59;4132532;28;20487;-76
2024/02/09 09:30:21;;;;;;;;;;;;;;;13.47;63.48;97442.16;4133865;28;20034;-76
2024/02/09 09:32:22;;;;;;;4.90;1.80;;;;;;;13.65;63.74;97446.66;4132240;28;19917;-76
2024/02/09 09:34:24;;;;;;;;;;;;;;;13.55;63.46;97439.97;4132512;28;20100;-77
2024/02/09 09:36:26;;;;;;;5.93;1.40;;;;;;;13.73;63.39;97440.97;4135633;28;20429;-75
2024/02/09 09:38:26;;;;;;;5.30;1.40;;;;;;;13.69;63.22;97439.81;4138089;28;20030;-76
2024/02/09 09:40:35;;;;;;;4.38;1.92;;;;;;;13.88;62.66;97449.44;4141659;28;20029;-76
2024/02/09 09:42:35;;;;;;;4.57;1.40;;;;;;;13.93;62.68;97450.59;4142914;28;20033;-75
2024/02/09 09:44:37;;;;;;;6.18;1.67;;;;;;;13.89;62.68;97451.06;4141708;28;20026;-75
2024/02/09 09:46:45;;;;;;;4.55;1.60;;;;;;;13.89;62.21;97448.38;4142730;28;20117;-75
2024/02/09 09:48:47;;;;;;;4.25;1.60;;;;;;;14.12;61.72;97451.34;4141482;28;20032;-76
2024/02/09 09:50:50;;;;;;;6.88;1.80;;;;;;;14.11;61.45;97453.22;4138687;28;20033;-75
2024/02/09 09:52:53;;;;;;;6.07;1.50;;;;;;;13.96;61.75;97444.78;4139437;28;20117;-76
2024/02/09 09:54:58;;;;;;;4.25;1.70;;;;;;;14.14;61.35;97455.44;4134575;28;20144;-76
2024/02/09 09:57:00;;;;;;;4.00;1.60;;;;;;;14.18;61.06;97453.91;4132127;28;20558;-76
2024/02/09 09:59:01;;;;;;;6.13;2.05;;;;;;;14.16;61.30;97456.03;4135854;28;20030;-76
2024/02/09 10:01:06;;;;;;;7.95;2.53;;;;;;;14.16;60.92;97450.66;4132577;28;20060;-76
2024/02/09 10:03:07;;;;;;;3.83;1.30;;;;;;;14.24;60.67;97446.00;4134058;28;20026;-76
2024/02/09 10:05:09;;;;;;;3.47;1.50;;;;;;;14.17;60.85;97452.28;4135044;28;20026;-77
2024/02/09 10:07:15;;;;;;;3.35;1.48;;;;;;;14.23;60.81;97450.53;4131957;28;20026;-76
2024/02/09 10:09:16;;;;;;;5.50;1.92;;;;;;;14.29;60.54;97448.78;4131284;28;20136;-77
2024/02/09 10:11:18;;;;;;;3.35;1.30;;;;;;;14.41;60.58;97452.31;4133478;28;20030;-74
2024/02/09 10:13:22;;;;;;;6.40;1.58;;;;;;;14.45;60.38;97453.47;4143787;28;20026;-76
2024/02/09 10:15:23;;;;;;;4.40;1.63;;;;;;;14.45;60.35;97453.47;4153255;28;20125;-76
2024/02/09 10:17:23;;;;;;;4.35;1.50;;;;;;;14.19;61.19;97444.00;4149778;28;20623;-76
2024/02/09 10:19:24;;;;;;;4.20;1.58;;;;;;;14.40;60.43;97439.91;4151571;28;20589;-77
2024/02/09 10:21:24;;;;;;;;;;;;;;;14.31;60.37;97447.50;4153216;28;20121;-76
2024/02/09 10:23:28;;;;;;;4.45;1.13;;;;;;;14.16;61.03;97445.28;4153273;28;19909;-76
2024/02/09 10:25:29;;;;;;;6.60;1.92;;;;;;;14.32;60.70;97449.13;4154050;28;20030;-76
2024/02/09 10:27:30;;;;;;;5.13;1.35;;;;;;;14.38;60.83;97442.03;4154475;28;20022;-76
2024/02/09 10:29:31;;;;;;;7.68;2.15;;;;;;;14.36;60.60;97444.13;4150152;28;20048;-77
2024/02/09 10:31:32;;;;;;;;;;;;;;;14.26;60.66;97444.69;4151631;28;20098;-76
2024/02/09 10:33:34;;;;;;;4.82;1.90;;;;;;;14.42;60.45;97448.56;4152084;28;19924;-76
2024/02/09 10:35:35;;;;;;;5.65;1.92;;;;;;;14.46;60.45;97435.50;4151792;28;20026;-76
2024/02/09 10:37:37;;;;;;;3.65;1.40;;;;;;;14.43;60.79;97444.00;4150734;28;20124;-76
2024/02/09 10:39:38;;;;;;;4.10;1.75;;;;;;;14.42;60.34;97443.19;4153154;28;20116;-76
2024/02/09 10:41:39;;;;;;;6.47;1.55;;;;;;;14.34;60.86;97447.03;4154502;28;20057;-76
2024/02/09 10:43:42;;;;;;;5.30;1.80;;;;;;;14.38;60.52;97441.22;4149253;28;20087;-76
2024/02/09 10:45:44;;;;;;;7.00;2.03;;;;;;;14.43;60.38;97436.78;4148161;28;20382;-76
2024/02/09 10:47:47;;;;;;;4.55;1.70;;;;;;;14.54;60.31;97429.75;4147902;28;20116;-76
2024/02/09 10:49:48;;;;;;;3.90;1.48;;;;;;;14.53;60.50;97427.31;4147973;28;20109;-75
2024/02/09 10:51:51;;;;;;;5.13;1.65;;;;;;;14.55;60.39;97433.28;4148132;28;20076;-76
2024/02/09 10:53:56;;;;;;;11.20;1.90;;;;;;;14.61;60.12;97435.03;4148080;28;20550;-76
2024/02/09 10:56:03;;;;;;;5.93;1.70;;;;;;;14.53;60.31;97433.50;4147602;28;20470;-76
2024/02/09 10:58:04;;;;;;;6.50;1.80;;;;;;;14.71;59.86;97429.91;4147378;28;20026;-76
2024/02/09 11:00:10;;;;;;;6.63;1.73;;;;;;;14.62;60.00;97421.34;4147780;28;20022;-76
2024/02/09 11:02:13;;;;;;;5.35;1.58;;;;;;;14.76;59.67;97423.81;4145958;28;20465;-76
2024/02/09 11:04:15;;;;;;;6.97;1.58;;;;;;;14.78;59.58;97425.22;4147491;28;20317;-76
2024/02/09 11:06:15;;;;;;;;;;;;;;;14.55;59.58;97426.03;4147867;28;20026;-77
2024/02/09 11:08:18;;;;;;;5.85;1.80;;;;;;;14.74;59.39;97421.34;4146870;28;19987;-77
2024/02/09 11:10:19;;;;;;;6.43;2.22;;;;;;;14.79;59.24;97417.94;4147361;28;20026;-76
2024/02/09 11:12:19;;;;;;;7.38;1.88;;;;;;;14.82;59.31;97420.16;4147727;28;20125;-76
2024/02/09 11:14:27;;;;;;;;;;;;;;;14.71;58.82;97411.06;4147697;28;20442;-76
2024/02/09 11:16:27;;;;;;;4.88;1.77;;;;;;;14.73;59.43;97408.97;4146075;28;19916;-76
2024/02/09 11:18:32;;;;;;;4.85;1.42;;;;;;;14.75;58.72;97404.16;4146785;28;20034;-76
2024/02/09 11:20:32;;;;;;;4.57;1.75;;;;;;;14.86;58.68;97407.06;4150545;28;20038;-76